createdAt,value
2022-09-06T00:00:41.246Z,16.26
2022-09-06T00:03:43.438Z,16.04
2022-09-06T00:06:44.910Z,15.83
2022-09-06T00:09:46.453Z,15.93
2022-09-06T00:12:48.037Z,16.29
2022-09-06T00:15:49.645Z,16.44
2022-09-06T00:18:55.629Z,16.31
2022-09-06T00:21:57.198Z,16.53
2022-09-06T00:24:58.677Z,16.11
2022-09-06T00:28:03.713Z,15.86
2022-09-06T00:31:25.952Z,16.31
2022-09-06T00:34:28.094Z,16.41
2022-09-06T00:37:29.548Z,16.31
2022-09-06T00:40:35.073Z,16.14
2022-09-06T00:43:37.093Z,15.85
2022-09-06T00:46:44.665Z,15.71
2022-09-06T00:49:50.420Z,15.73
2022-09-06T00:52:53.377Z,15.67
2022-09-06T00:55:55.325Z,15.74
2022-09-06T00:58:57.336Z,16.11
2022-09-06T01:01:59.009Z,16.01
2022-09-06T01:05:02.219Z,16.05
2022-09-06T01:08:06.453Z,15.85
2022-09-06T01:11:47.998Z,15.53
2022-09-06T01:15:07.413Z,15.69
2022-09-06T01:18:41.710Z,15.63
2022-09-06T01:21:51.150Z,16.13
2022-09-06T01:24:55.501Z,16.08
2022-09-06T01:28:18.405Z,15.63
2022-09-06T01:31:19.891Z,15.27
2022-09-06T01:34:28.338Z,15.20
2022-09-06T01:37:32.949Z,15.37
2022-09-06T01:40:36.348Z,15.73
2022-09-06T01:43:41.190Z,15.71
2022-09-06T01:47:05.388Z,15.81
2022-09-06T01:50:35.039Z,15.34
2022-09-06T01:54:06.179Z,15.43
2022-09-06T01:57:19.919Z,15.70
2022-09-06T02:00:25.352Z,15.64
2022-09-06T02:03:37.652Z,15.69
2022-09-06T02:06:44.954Z,14.97
2022-09-06T02:09:53.647Z,14.79
2022-09-06T02:12:59.714Z,14.70
2022-09-06T02:16:06.963Z,14.91
2022-09-06T02:19:15.211Z,15.15
2022-09-06T02:22:21.534Z,15.22
2022-09-06T02:25:29.883Z,15.60
2022-09-06T02:28:31.692Z,15.71
2022-09-06T02:31:45.389Z,15.45
2022-09-06T02:34:47.389Z,14.17
2022-09-06T02:37:49.532Z,14.67
2022-09-06T02:40:53.669Z,15.33
2022-09-06T02:43:55.126Z,15.44
2022-09-06T02:46:57.384Z,15.50
2022-09-06T02:49:59.123Z,15.68
2022-09-06T02:53:09.338Z,15.68
2022-09-06T02:56:11.169Z,15.76
2022-09-06T02:59:12.654Z,15.88
2022-09-06T03:02:14.338Z,16.00
2022-09-06T03:05:15.959Z,16.11
2022-09-06T03:08:18.930Z,16.15
2022-09-06T03:11:20.450Z,16.17
2022-09-06T03:14:21.942Z,16.12
2022-09-06T03:17:23.646Z,16.14
2022-09-06T03:20:25.926Z,16.22
2022-09-06T03:23:29.098Z,16.27
2022-09-06T03:26:30.572Z,16.36
2022-09-06T03:29:32.199Z,16.41
2022-09-06T03:32:33.883Z,16.31
2022-09-06T03:35:35.392Z,16.11
2022-09-06T03:38:36.890Z,16.19
2022-09-06T03:41:38.476Z,16.25
2022-09-06T03:44:39.959Z,16.37
2022-09-06T03:47:41.490Z,16.39
2022-09-06T03:50:50.568Z,16.37
2022-09-06T03:53:52.188Z,16.36
2022-09-06T03:56:53.941Z,16.31
2022-09-06T03:59:55.461Z,16.15
2022-09-06T04:03:01.448Z,15.84
2022-09-06T04:06:04.605Z,15.79
2022-09-06T04:09:06.082Z,16.11
2022-09-06T04:12:08.047Z,16.13
2022-09-06T04:15:09.884Z,16.10
2022-09-06T04:18:11.357Z,16.10
2022-09-06T04:21:12.832Z,16.22
2022-09-06T04:24:14.291Z,16.16
2022-09-06T04:27:15.814Z,16.01
2022-09-06T04:30:17.397Z,16.11
2022-09-06T04:33:18.869Z,16.16
2022-09-06T04:36:20.491Z,16.12
2022-09-06T04:39:21.943Z,15.89
2022-09-06T04:42:23.745Z,15.99
2022-09-06T04:45:25.348Z,16.00
2022-09-06T04:48:26.971Z,16.09
2022-09-06T04:51:31.561Z,16.09
2022-09-06T04:54:33.314Z,16.13
2022-09-06T04:57:34.892Z,16.16
2022-09-06T05:00:38.542Z,16.06
2022-09-06T05:03:40.186Z,16.13
2022-09-06T05:06:42.873Z,15.84
2022-09-06T05:09:44.388Z,16.01
2022-09-06T05:12:53.678Z,16.10
2022-09-06T05:15:55.554Z,15.87
2022-09-06T05:18:57.034Z,15.68
2022-09-06T05:21:58.557Z,15.45
2022-09-06T05:25:00.022Z,15.40
2022-09-06T05:28:01.747Z,15.45
2022-09-06T05:31:12.008Z,15.81
2022-09-06T05:34:15.035Z,16.11
2022-09-06T05:37:16.506Z,16.25
2022-09-06T05:40:18.175Z,16.30
2022-09-06T05:43:19.697Z,16.12
2022-09-06T05:46:21.550Z,15.82
2022-09-06T05:49:23.074Z,15.91
2022-09-06T05:52:24.595Z,16.11
2022-09-06T05:55:30.188Z,16.31
2022-09-06T05:58:32.188Z,16.45
2022-09-06T06:01:33.735Z,16.53
2022-09-06T06:04:35.302Z,16.54
2022-09-06T06:07:36.846Z,16.54
2022-09-06T06:10:39.465Z,16.55
2022-09-06T06:13:41.722Z,16.59
2022-09-06T06:16:43.239Z,16.62
2022-09-06T06:19:45.003Z,16.68
2022-09-06T06:22:46.510Z,16.73
2022-09-06T06:25:47.954Z,16.77
2022-09-06T06:28:49.820Z,16.80
2022-09-06T06:31:51.360Z,16.84
2022-09-06T06:34:52.889Z,16.80
2022-09-06T06:37:57.161Z,16.89
2022-09-06T06:41:04.441Z,17.05
2022-09-06T06:44:08.080Z,17.17
2022-09-06T06:47:09.694Z,17.22
2022-09-06T06:50:11.548Z,17.30
2022-09-06T06:53:13.075Z,17.38
2022-09-06T06:56:23.026Z,17.36
2022-09-06T06:59:24.622Z,17.42
2022-09-06T07:02:26.277Z,17.50
2022-09-06T07:08:49.346Z,17.76
2022-09-06T07:11:50.865Z,17.89
2022-09-06T07:14:52.355Z,18.05
2022-09-06T07:17:57.605Z,18.23
2022-09-06T07:24:20.638Z,18.30
2022-09-06T07:30:43.751Z,18.42
2022-09-06T07:33:45.225Z,18.43
2022-09-06T07:36:46.722Z,18.54
2022-09-06T07:39:48.322Z,18.61
2022-09-06T07:42:49.948Z,18.62
2022-09-06T07:55:26.071Z,19.29
2022-09-06T07:58:29.479Z,19.34
2022-09-06T08:01:34.735Z,19.54
2022-09-06T08:04:36.195Z,19.72
2022-09-06T08:10:44.046Z,19.94
2022-09-06T08:13:49.679Z,20.09
2022-09-06T08:16:51.230Z,20.11
2022-09-06T08:19:52.711Z,20.13
2022-09-06T08:22:54.180Z,20.19
2022-09-06T08:25:57.499Z,20.27
2022-09-06T08:29:00.415Z,20.42
2022-09-06T08:32:02.185Z,20.64
2022-09-06T08:35:04.271Z,20.78
2022-09-06T08:38:05.822Z,20.79
2022-09-06T08:41:09.317Z,21.01
2022-09-06T08:47:36.569Z,21.48
2022-09-06T08:50:43.287Z,21.53
2022-09-06T08:53:49.213Z,21.76
2022-09-06T08:57:40.395Z,21.94
2022-09-06T09:00:50.155Z,22.17
2022-09-06T09:03:56.517Z,22.35
2022-09-06T09:07:06.817Z,22.48
2022-09-06T09:10:21.849Z,22.66
2022-09-06T09:13:38.937Z,23.06
2022-09-06T09:16:44.650Z,23.12
2022-09-06T09:19:46.382Z,23.10
2022-09-06T09:22:48.604Z,23.18
2022-09-06T09:25:52.726Z,23.14
2022-09-06T09:29:12.951Z,23.09
2022-09-06T09:32:36.097Z,23.09
2022-09-06T09:35:42.125Z,23.00
2022-09-06T09:38:46.307Z,22.95
2022-09-06T09:41:50.825Z,23.04
2022-09-06T09:44:52.290Z,23.33
2022-09-06T09:47:54.149Z,23.12
2022-09-06T09:50:56.139Z,23.11
2022-09-06T09:54:04.325Z,23.10
2022-09-06T09:57:17.533Z,23.23
2022-09-06T10:00:42.951Z,23.64
2022-09-06T10:07:22.745Z,23.77
2022-09-06T10:10:31.998Z,23.97
2022-09-06T10:13:34.207Z,23.95
2022-09-06T10:16:44.743Z,23.74
2022-09-06T10:19:47.245Z,23.83
2022-09-06T10:23:05.008Z,23.91
2022-09-06T10:26:28.269Z,24.15
2022-09-06T10:29:45.046Z,24.25
2022-09-06T10:33:05.455Z,24.38
2022-09-06T10:36:07.627Z,24.49
2022-09-06T10:39:57.587Z,25.00
2022-09-06T10:43:01.320Z,25.02
2022-09-06T10:46:09.310Z,24.99
2022-09-06T10:49:17.184Z,25.09
2022-09-06T10:52:28.504Z,25.18
2022-09-06T10:55:32.162Z,25.29
2022-09-06T11:02:32.596Z,25.46
2022-09-06T11:05:43.996Z,25.62
2022-09-06T11:09:02.385Z,25.75
2022-09-06T11:12:16.705Z,25.61
2022-09-06T11:15:20.228Z,25.62
2022-09-06T11:18:46.564Z,25.72
2022-09-06T11:22:44.065Z,25.79
2022-09-06T11:26:13.859Z,25.82
2022-09-06T11:29:27.706Z,25.78
2022-09-06T11:32:50.795Z,25.67
2022-09-06T11:35:53.444Z,25.58
2022-09-06T11:38:58.243Z,25.53
2022-09-06T11:42:00.594Z,25.59
2022-09-06T11:45:01.994Z,25.51
2022-09-06T11:48:26.360Z,25.43
2022-09-06T11:51:35.854Z,25.36
2022-09-06T11:54:44.494Z,25.41
2022-09-06T11:57:47.365Z,25.51
2022-09-06T12:01:13.870Z,25.42
2022-09-06T12:04:15.495Z,25.42
2022-09-06T12:07:17.274Z,25.49
2022-09-06T12:10:30.691Z,25.49
2022-09-06T12:13:48.668Z,25.69
2022-09-06T12:16:59.328Z,25.76
2022-09-06T12:20:08.811Z,25.79
2022-09-06T12:23:36.242Z,26.35
2022-09-06T12:26:55.602Z,26.48
2022-09-06T12:30:05.132Z,26.61
2022-09-06T12:33:33.202Z,26.62
2022-09-06T12:36:34.711Z,26.45
2022-09-06T12:39:37.215Z,26.27
2022-09-06T12:42:39.000Z,26.15
2022-09-06T12:45:52.234Z,26.20
2022-09-06T12:49:08.733Z,26.21
2022-09-06T12:52:15.645Z,26.46
2022-09-06T12:55:28.178Z,26.48
2022-09-06T12:58:30.026Z,26.60
2022-09-06T13:01:37.061Z,26.72
2022-09-06T13:04:43.226Z,26.59
2022-09-06T13:07:52.249Z,26.45
2022-09-06T13:10:54.553Z,26.44
2022-09-06T13:13:56.406Z,26.56
2022-09-06T13:16:57.966Z,26.60
2022-09-06T13:20:11.050Z,26.65
2022-09-06T13:23:20.921Z,26.56
2022-09-06T13:26:39.363Z,26.55
2022-09-06T13:29:55.003Z,26.54
2022-09-06T13:32:56.668Z,26.56
2022-09-06T13:36:06.228Z,26.46
2022-09-06T13:39:07.710Z,26.45
2022-09-06T13:42:28.243Z,26.39
2022-09-06T13:45:31.730Z,26.41
2022-09-06T13:48:33.945Z,26.38
2022-09-06T13:51:38.670Z,26.48
2022-09-06T13:54:40.275Z,26.56
2022-09-06T13:57:41.713Z,26.68
2022-09-06T14:00:43.385Z,26.68
2022-09-06T14:03:44.889Z,26.77
2022-09-06T14:06:47.634Z,26.83
2022-09-06T14:09:50.175Z,26.88
2022-09-06T14:12:53.583Z,26.89
2022-09-06T14:15:55.357Z,26.84
2022-09-06T14:18:57.474Z,26.65
2022-09-06T14:21:59.123Z,26.35
2022-09-06T14:25:00.663Z,26.05
2022-09-06T14:28:05.254Z,26.14
2022-09-06T14:31:18.204Z,26.18
2022-09-06T14:34:19.836Z,26.18
2022-09-06T14:37:22.029Z,26.49
2022-09-06T14:40:24.084Z,26.54
2022-09-06T14:43:25.637Z,26.50
2022-09-06T14:46:28.326Z,26.56
2022-09-06T14:49:30.029Z,26.65
2022-09-06T14:52:31.529Z,26.83
2022-09-06T14:55:33.516Z,26.85
2022-09-06T14:58:37.349Z,26.78
2022-09-06T15:01:40.643Z,26.74
2022-09-06T15:04:42.485Z,26.59
2022-09-06T15:07:44.187Z,26.59
2022-09-06T15:10:54.093Z,26.49
2022-09-06T15:13:56.456Z,26.55
2022-09-06T15:16:59.917Z,26.35
2022-09-06T15:20:01.638Z,26.38
2022-09-06T15:26:25.688Z,26.28
2022-09-06T15:29:27.577Z,26.14
2022-09-06T15:32:29.346Z,26.09
2022-09-06T15:35:30.890Z,26.02
2022-09-06T15:38:36.885Z,25.92
2022-09-06T15:41:40.302Z,25.92
2022-09-06T15:44:41.895Z,25.91
2022-09-06T15:47:43.529Z,25.83
2022-09-06T15:50:51.610Z,25.75
2022-09-06T15:53:53.481Z,25.70
2022-09-06T15:56:57.975Z,25.71
2022-09-06T15:59:59.475Z,25.69
2022-09-06T16:03:01.457Z,25.72
2022-09-06T16:09:27.578Z,25.56
2022-09-06T16:12:29.173Z,25.44
2022-09-06T16:15:30.682Z,25.46
2022-09-06T16:18:36.720Z,25.35
2022-09-06T16:21:41.617Z,25.39
2022-09-06T16:24:43.106Z,25.48
2022-09-06T16:27:44.754Z,25.66
2022-09-06T16:30:46.383Z,25.74
2022-09-06T16:33:48.916Z,25.81
2022-09-06T16:36:50.644Z,25.78
2022-09-06T16:39:52.452Z,25.88
2022-09-06T16:42:57.258Z,25.91
2022-09-06T16:46:01.016Z,25.76
2022-09-06T16:49:04.312Z,25.34
2022-09-06T16:52:05.718Z,25.21
2022-09-06T16:55:07.529Z,25.03
2022-09-06T16:58:09.063Z,24.83
2022-09-06T17:01:11.146Z,24.72
2022-09-06T17:04:13.254Z,24.49
2022-09-06T17:07:14.799Z,24.32
2022-09-06T17:10:16.355Z,24.17
2022-09-06T17:13:17.919Z,24.08
2022-09-06T17:16:39.336Z,23.87
2022-09-06T17:19:41.381Z,23.69
2022-09-06T17:22:42.981Z,23.62
2022-09-06T17:25:45.024Z,23.54
2022-09-06T17:28:47.760Z,23.36
2022-09-06T17:31:49.482Z,23.18
2022-09-06T17:34:51.117Z,22.95
2022-09-06T17:37:52.610Z,22.66
2022-09-06T17:41:00.786Z,22.57
2022-09-06T17:44:03.563Z,22.54
2022-09-06T17:47:14.818Z,22.53
2022-09-06T17:50:17.461Z,22.54
2022-09-06T17:53:19.499Z,22.36
2022-09-06T17:56:24.445Z,22.31
2022-09-06T17:59:26.031Z,22.27
2022-09-06T18:02:27.833Z,22.09
2022-09-06T18:05:29.369Z,22.02
2022-09-06T18:08:30.996Z,21.87
2022-09-06T18:11:33.599Z,21.66
2022-09-06T18:14:35.306Z,21.54
2022-09-06T18:17:36.895Z,21.18
2022-09-06T18:20:38.434Z,21.17
2022-09-06T18:23:39.990Z,21.05
2022-09-06T18:26:42.945Z,20.74
2022-09-06T18:29:44.672Z,20.64
2022-09-06T18:32:46.389Z,20.88
2022-09-06T18:35:50.060Z,20.78
2022-09-06T18:38:51.910Z,20.67
2022-09-06T18:42:07.003Z,20.50
2022-09-06T18:45:09.112Z,20.52
2022-09-06T18:48:10.993Z,20.53
2022-09-06T18:51:14.864Z,20.53
2022-09-06T18:54:16.856Z,20.33
2022-09-06T18:57:18.494Z,20.45
2022-09-06T19:00:21.372Z,20.42
2022-09-06T19:03:23.176Z,20.31
2022-09-06T19:06:27.163Z,19.92
2022-09-06T19:09:28.718Z,19.87
2022-09-06T19:12:30.310Z,19.93
2022-09-06T19:15:31.821Z,19.78
2022-09-06T19:18:34.835Z,19.94
2022-09-06T19:21:41.424Z,19.92
2022-09-06T19:24:44.278Z,19.83
2022-09-06T19:27:48.826Z,19.36
2022-09-06T19:30:50.725Z,19.60
2022-09-06T19:33:53.695Z,19.72
2022-09-06T19:36:55.425Z,19.51
2022-09-06T19:39:57.427Z,19.10
2022-09-06T19:42:58.998Z,19.28
2022-09-06T19:46:05.537Z,19.55
2022-09-06T19:49:08.260Z,19.49
2022-09-06T19:52:10.451Z,19.43
2022-09-06T19:55:12.035Z,19.34
2022-09-06T19:58:13.551Z,19.36
2022-09-06T20:01:17.984Z,19.40
2022-09-06T20:04:20.920Z,19.38
2022-09-06T20:07:22.717Z,19.32
2022-09-06T20:10:25.647Z,19.33
2022-09-06T20:13:27.858Z,19.36
2022-09-06T20:16:30.549Z,19.27
2022-09-06T20:19:32.606Z,19.22
2022-09-06T20:22:34.268Z,19.26
2022-09-06T20:25:36.940Z,19.10
2022-09-06T20:28:38.625Z,19.11
2022-09-06T20:31:40.279Z,19.03
2022-09-06T20:34:43.014Z,18.95
2022-09-06T20:37:46.076Z,18.78
2022-09-06T20:40:47.666Z,18.70
2022-09-06T20:43:55.521Z,18.85
2022-09-06T20:46:57.286Z,18.92
2022-09-06T20:49:58.903Z,18.80
2022-09-06T20:53:01.872Z,18.68
2022-09-06T20:56:05.783Z,18.71
2022-09-06T20:59:12.523Z,18.77
2022-09-06T21:02:14.180Z,18.80
2022-09-06T21:05:16.354Z,18.82
2022-09-06T21:08:18.152Z,18.70
2022-09-06T21:11:19.926Z,18.59
2022-09-06T21:14:22.713Z,18.62
2022-09-06T21:17:24.418Z,18.69
2022-09-06T21:20:26.226Z,18.74
2022-09-06T21:23:29.636Z,18.70
2022-09-06T21:26:31.696Z,18.60
2022-09-06T21:29:33.200Z,18.29
2022-09-06T21:32:35.398Z,18.15
2022-09-06T21:35:36.922Z,18.07
2022-09-06T21:38:40.799Z,17.97
2022-09-06T21:41:46.428Z,18.23
2022-09-06T21:44:47.978Z,18.35
2022-09-06T21:47:50.127Z,18.40
2022-09-06T21:50:52.251Z,18.41
2022-09-06T21:53:54.388Z,18.55
2022-09-06T21:56:56.023Z,18.70
2022-09-06T21:59:57.738Z,18.69
2022-09-06T22:02:59.296Z,18.54
2022-09-06T22:06:18.911Z,18.60
2022-09-06T22:09:20.733Z,18.51
2022-09-06T22:12:25.886Z,18.34
2022-09-06T22:15:27.437Z,18.28
2022-09-06T22:18:29.030Z,18.34
2022-09-06T22:21:33.177Z,18.43
2022-09-06T22:24:34.667Z,18.31
2022-09-06T22:27:36.374Z,18.20
2022-09-06T22:30:37.927Z,18.00
2022-09-06T22:33:39.640Z,17.70
2022-09-06T22:36:41.206Z,17.61
2022-09-06T22:39:50.740Z,17.42
2022-09-06T22:42:53.017Z,17.26
2022-09-06T22:45:54.722Z,17.66
2022-09-06T22:48:56.250Z,17.51
2022-09-06T22:51:57.866Z,17.50
2022-09-06T22:54:59.415Z,17.21
2022-09-06T22:58:01.039Z,17.15
2022-09-06T23:01:14.516Z,17.24
2022-09-06T23:04:16.117Z,17.30
2022-09-06T23:07:17.888Z,17.53
2022-09-06T23:10:19.516Z,17.46
2022-09-06T23:13:20.987Z,17.60
2022-09-06T23:16:22.655Z,17.62
2022-09-06T23:19:24.782Z,17.67
2022-09-06T23:22:26.661Z,17.79
2022-09-06T23:25:28.218Z,17.93
2022-09-06T23:28:30.011Z,18.00
2022-09-06T23:31:32.466Z,17.98
2022-09-06T23:34:34.749Z,17.89
2022-09-06T23:37:36.669Z,17.94
2022-09-06T23:40:38.142Z,17.95
2022-09-06T23:43:41.540Z,17.95
2022-09-06T23:46:43.075Z,17.89
2022-09-06T23:49:45.310Z,17.84
2022-09-06T23:52:47.037Z,17.78
2022-09-06T23:55:48.689Z,17.76
2022-09-06T23:58:50.255Z,17.68
